Time;durP1;ratioP1;P1;durP2;ratioP2;P2;SDS_P1;SDS_P2;PMS_P1;PMS_P2;Temp;Humidity;BMP_temperature;BMP_pressure;BME280_temperature;BME280_humidity;BME280_pressure;Samples;Min_cycle;Max_cycle;Signal;HPM_P1;HPM_P2
2024/04/10 00:01:05;;;;;;;18.35;3.50;;;10.60;1.00;;;;;;5166169;27;39447;-77
2024/04/10 00:03:31;;;;;;;11.48;2.60;;;10.60;1.00;;;;;;5170044;27;41731;-77
2024/04/10 00:05:59;;;;;;;16.23;3.42;;;10.60;1.00;;;;;;5192229;27;39503;-77
2024/04/10 00:08:26;;;;;;;9.32;2.70;;;10.60;1.00;;;;;;5205401;27;38190;-77
2024/04/10 00:10:53;;;;;;;13.32;4.03;;;10.60;1.00;;;;;;5175315;27;40740;-77
2024/04/10 00:13:19;;;;;;;10.10;2.77;;;10.50;1.00;;;;;;5191778;27;38781;-77
2024/04/10 00:15:45;;;;;;;11.60;2.92;;;10.50;1.00;;;;;;5203188;27;37909;-77
2024/04/10 00:18:12;;;;;;;9.57;2.45;;;10.40;1.00;;;;;;5173567;27;37803;-76
2024/04/10 00:20:38;;;;;;;11.30;2.70;;;10.40;1.00;;;;;;5180296;27;39070;-77
2024/04/10 00:23:05;;;;;;;10.27;3.07;;;10.30;1.00;;;;;;5175883;27;38734;-77
2024/04/10 00:25:34;;;;;;;13.27;2.93;;;10.30;1.00;;;;;;5174299;27;37972;-77
2024/04/10 00:28:00;;;;;;;10.15;3.40;;;10.20;1.00;;;;;;5198816;27;38960;-77
2024/04/10 00:30:26;;;;;;;11.50;3.30;;;10.20;1.00;;;;;;5203538;27;41341;-76
2024/04/10 00:32:52;;;;;;;15.97;3.87;;;10.20;1.00;;;;;;5201603;27;39413;-77
2024/04/10 00:35:19;;;;;;;11.00;2.80;;;10.10;1.00;;;;;;5202998;27;36841;-78
2024/04/10 00:37:45;;;;;;;14.93;3.27;;;9.90;1.00;;;;;;5204402;27;37875;-77
2024/04/10 00:40:11;;;;;;;12.87;2.97;;;9.90;1.00;;;;;;5205387;27;38612;-77
2024/04/10 00:42:38;;;;;;;11.57;3.30;;;9.80;1.00;;;;;;5180304;27;38662;-77
2024/04/10 00:45:04;;;;;;;11.93;3.43;;;9.80;1.00;;;;;;5207843;27;38929;-78
2024/04/10 00:47:31;;;;;;;14.53;3.33;;;9.80;1.00;;;;;;5174568;27;48755;-77
2024/04/10 00:49:57;;;;;;;15.23;3.20;;;9.80;1.00;;;;;;5173435;27;38874;-78
2024/04/10 00:52:23;;;;;;;8.83;3.20;;;9.90;1.00;;;;;;5190758;27;39540;-77
2024/04/10 00:54:50;;;;;;;13.63;3.27;;;9.80;1.00;;;;;;5214830;27;36577;-77
2024/04/10 00:57:16;;;;;;;13.87;3.03;;;9.90;1.00;;;;;;5181795;27;37755;-77
2024/04/10 00:59:42;;;;;;;8.30;3.40;;;9.90;1.00;;;;;;5203183;27;38856;-77
2024/04/10 01:04:51;;;;;;;18.70;4.17;;;9.80;1.00;;;;;;5319877;21;20067;-79
2024/04/10 01:07:18;;;;;;;18.40;3.67;;;9.80;1.00;;;;;;5291522;26;38611;-80
2024/04/10 01:09:51;;;;;;;11.43;3.67;;;9.80;1.00;;;;;;5295642;27;38844;-80
2024/04/10 01:12:20;;;;;;;9.87;2.77;;;9.90;1.00;;;;;;5281684;27;39550;-79
2024/04/10 01:14:47;;;;;;;14.73;3.43;;;9.80;1.00;;;;;;5294833;27;37706;-80
2024/04/10 01:17:13;;;;;;;12.07;3.00;;;9.80;1.00;;;;;;5290443;27;39135;-79
2024/04/10 01:19:39;;;;;;;15.73;3.07;;;9.90;1.00;;;;;;5290966;27;38581;-78
2024/04/10 01:22:06;;;;;;;15.13;3.07;;;9.80;1.60;;;;;;5281939;27;37094;-79
2024/04/10 01:24:32;;;;;;;10.03;2.70;;;9.80;1.00;;;;;;5290553;27;37229;-79
2024/04/10 01:26:59;;;;;;;19.13;3.80;;;9.70;7.80;;;;;;5297029;27;37708;-79
2024/04/10 01:29:25;;;;;;;18.07;3.90;;;9.70;18.80;;;;;;5288574;27;38022;-80
2024/04/10 01:31:51;;;;;;;12.93;3.07;;;9.70;15.00;;;;;;5291734;27;38866;-80
2024/04/10 01:34:18;;;;;;;11.90;3.20;;;9.60;3.10;;;;;;5291635;26;37434;-79
2024/04/10 01:36:45;;;;;;;15.47;3.40;;;9.70;4.80;;;;;;5294518;27;38671;-82
2024/04/10 01:39:13;;;;;;;15.87;3.63;;;9.70;1.00;;;;;;5296800;27;37538;-79
2024/04/10 01:41:39;;;;;;;17.77;3.07;;;9.70;1.00;;;;;;5299343;27;38163;-80
2024/04/10 01:44:05;;;;;;;15.13;3.13;;;9.70;1.00;;;;;;5295149;26;36998;-78
2024/04/10 01:46:36;;;;;;;17.53;3.40;;;9.70;1.00;;;;;;5293030;27;38817;-79
2024/04/10 01:49:04;;;;;;;19.17;3.90;;;9.70;1.00;;;;;;5297016;27;39087;-80
2024/04/10 01:51:30;;;;;;;14.67;3.17;;;9.80;1.00;;;;;;5281645;27;48730;-80
2024/04/10 01:53:57;;;;;;;10.53;3.10;;;9.80;1.00;;;;;;5293971;27;38031;-80
2024/04/10 01:56:23;;;;;;;14.30;3.57;;;9.90;1.00;;;;;;5292331;26;37394;-79
2024/04/10 01:58:55;;;;;;;13.30;2.50;;;9.80;1.00;;;;;;5299087;26;40208;-80
2024/04/10 02:01:22;;;;;;;15.38;3.05;;;9.80;1.00;;;;;;5284762;27;37551;-79
2024/04/10 02:03:49;;;;;;;12.27;2.40;;;9.90;1.00;;;;;;5275250;27;39312;-78
2024/04/10 02:06:15;;;;;;;13.50;2.70;;;9.90;1.00;;;;;;5281838;27;39736;-80
2024/04/10 02:08:48;;;;;;;16.30;3.10;;;9.90;1.00;;;;;;5282998;27;38033;-80
2024/04/10 02:11:28;;;;;;;15.83;2.90;;;9.90;1.00;;;;;;5316711;26;38624;-79
2024/04/10 02:13:55;;;;;;;13.07;2.63;;;9.90;1.00;;;;;;5291311;27;36901;-79
2024/04/10 02:16:24;;;;;;;18.53;4.10;;;9.90;1.00;;;;;;5296507;27;37171;-79
2024/04/10 02:18:50;;;;;;;17.00;2.63;;;9.90;1.00;;;;;;5289823;26;40154;-80
2024/04/10 02:21:18;;;;;;;15.13;2.70;;;9.90;1.00;;;;;;5300208;26;40600;-79
2024/04/10 02:23:50;;;;;;;12.77;2.83;;;9.90;1.00;;;;;;5289723;27;37679;-80
2024/04/10 02:26:17;;;;;;;8.60;2.37;;;10.00;1.00;;;;;;5289153;27;37610;-81
2024/04/10 02:28:45;;;;;;;9.23;2.70;;;9.90;1.00;;;;;;5291324;27;40000;-81
2024/04/10 02:31:32;;;;;;;9.20;2.40;;;9.90;1.00;;;;;;5295156;27;37408;-80
2024/04/10 02:34:03;;;;;;;17.90;3.10;;;10.00;1.00;;;;;;5302670;27;40758;-80
2024/04/10 02:36:30;;;;;;;11.90;2.73;;;9.90;1.00;;;;;;5261361;27;49000;-79
2024/04/10 02:39:05;;;;;;;14.70;2.77;;;10.00;1.00;;;;;;5299863;27;38266;-80
2024/04/10 02:41:37;;;;;;;13.47;2.80;;;10.00;1.00;;;;;;5297396;27;47575;-79
2024/04/10 02:44:05;;;;;;;17.23;2.43;;;10.00;1.00;;;;;;5298638;26;38194;-79
2024/04/10 02:46:31;;;;;;;11.53;2.60;;;9.90;1.00;;;;;;5289288;27;36549;-80
2024/04/10 02:48:59;;;;;;;13.03;2.87;;;10.00;1.00;;;;;;5292300;26;39431;-79
2024/04/10 02:51:26;;;;;;;11.47;2.37;;;10.00;1.00;;;;;;5292054;26;38941;-78
2024/04/10 02:53:53;;;;;;;16.53;2.47;;;10.00;1.00;;;;;;5294174;27;37362;-81
2024/04/10 02:56:20;;;;;;;15.23;2.90;;;10.00;1.00;;;;;;5287253;26;36581;-80
2024/04/10 02:58:47;;;;;;;14.37;2.30;;;10.00;1.00;;;;;;5311053;26;38739;-79
2024/04/10 03:01:14;;;;;;;13.93;2.60;;;10.00;1.00;;;;;;5281734;27;38498;-79
2024/04/10 03:03:43;;;;;;;11.53;3.17;;;10.00;1.00;;;;;;5298141;27;38329;-79
2024/04/10 03:06:10;;;;;;;11.70;2.78;;;10.00;1.00;;;;;;5290340;26;36112;-81
2024/04/10 03:08:37;;;;;;;11.32;2.75;;;10.00;1.00;;;;;;5294452;27;39185;-79
2024/04/10 03:11:05;;;;;;;11.73;2.40;;;9.90;1.00;;;;;;5291615;26;39037;-80
2024/04/10 03:13:33;;;;;;;15.33;2.57;;;9.90;1.00;;;;;;5291389;27;39277;-79
2024/04/10 03:15:59;;;;;;;11.43;2.47;;;9.90;1.00;;;;;;5296614;27;36726;-78
2024/04/10 03:18:26;;;;;;;16.70;3.40;;;9.90;1.00;;;;;;5274599;27;37842;-78
2024/04/10 03:20:53;;;;;;;12.75;2.60;;;9.90;1.00;;;;;;5278233;27;37670;-79
2024/04/10 03:23:21;;;;;;;10.85;1.90;;;9.80;1.00;;;;;;5287480;27;36625;-81
2024/04/10 03:25:48;;;;;;;16.23;3.57;;;9.80;1.00;;;;;;5279837;27;37635;-79
2024/04/10 03:28:15;;;;;;;13.18;2.40;;;9.80;1.00;;;;;;5280034;27;37915;-81
2024/04/10 03:30:42;;;;;;;13.40;3.20;;;9.80;1.00;;;;;;5288661;27;38983;-79
2024/04/10 03:33:08;;;;;;;12.37;2.53;;;9.80;1.00;;;;;;5291705;26;39048;-79
2024/04/10 03:35:42;;;;;;;12.63;2.72;;;9.80;1.00;;;;;;5289089;27;36794;-80
2024/04/10 03:38:11;;;;;;;8.45;2.60;;;9.80;1.00;;;;;;5293322;26;39043;-80
2024/04/10 03:40:39;;;;;;;18.85;3.38;;;9.80;1.00;;;;;;5290169;27;39729;-79
2024/04/10 03:43:07;;;;;;;11.15;2.58;;;9.80;1.00;;;;;;5296503;26;38568;-78
2024/04/10 03:45:42;;;;;;;13.48;2.15;;;9.70;1.00;;;;;;5302909;26;37686;-80
2024/04/10 03:48:09;;;;;;;11.63;2.90;;;9.70;1.00;;;;;;5288750;26;39202;-80
2024/04/10 03:50:35;;;;;;;18.00;2.50;;;9.60;1.00;;;;;;5289298;27;38532;-79
2024/04/10 03:53:05;;;;;;;10.60;2.10;;;9.60;1.00;;;;;;5295136;26;38603;-79
2024/04/10 03:55:36;;;;;;;14.87;2.70;;;9.50;1.00;;;;;;5292721;27;36587;-80
2024/04/10 03:58:02;;;;;;;13.37;2.30;;;9.50;1.00;;;;;;5292961;27;37741;-82
2024/04/10 04:00:28;;;;;;;15.83;2.93;;;9.40;1.00;;;;;;5295631;27;38485;-79
2024/04/10 04:02:55;;;;;;;12.53;2.60;;;9.40;1.00;;;;;;5290197;27;37569;-80
2024/04/10 04:05:22;;;;;;;15.63;2.50;;;9.40;1.00;;;;;;5291198;27;36891;-79
2024/04/10 04:07:49;;;;;;;17.10;3.77;;;9.40;1.00;;;;;;5296168;26;37903;-78
2024/04/10 04:10:15;;;;;;;11.80;2.30;;;9.30;1.00;;;;;;5288903;26;37432;-78
2024/04/10 04:12:42;;;;;;;12.30;2.70;;;9.30;1.00;;;;;;5276388;27;37055;-80
2024/04/10 04:15:09;;;;;;;14.30;2.10;;;9.20;1.00;;;;;;5298749;27;36958;-79
2024/04/10 04:17:38;;;;;;;15.67;2.83;;;9.20;1.00;;;;;;5296747;27;37942;-79
2024/04/10 04:20:06;;;;;;;14.53;2.23;;;9.20;1.00;;;;;;5294433;26;38483;-78
2024/04/10 04:22:33;;;;;;;12.97;2.33;;;9.20;1.00;;;;;;5287808;27;37769;-78
2024/04/10 04:25:01;;;;;;;11.90;1.93;;;9.10;1.00;;;;;;5285255;27;37909;-78
2024/04/10 04:27:34;;;;;;;15.00;2.57;;;9.10;1.00;;;;;;5292087;27;37903;-78
2024/04/10 04:30:01;;;;;;;14.75;3.05;;;9.00;1.00;;;;;;5292693;27;37568;-78
2024/04/10 04:32:28;;;;;;;13.30;2.33;;;9.00;1.00;;;;;;5294485;27;38588;-79
2024/04/10 04:34:54;;;;;;;12.00;2.43;;;8.90;1.00;;;;;;5288274;27;36152;-80
2024/04/10 04:37:20;;;;;;;14.53;2.80;;;8.90;1.00;;;;;;5286180;27;38286;-78
2024/04/10 04:39:47;;;;;;;15.60;2.00;;;8.90;1.00;;;;;;5294583;27;37337;-80
2024/04/10 04:42:32;;;;;;;14.70;2.40;;;8.80;1.00;;;;;;5286714;27;36970;-79
2024/04/10 04:44:59;;;;;;;10.23;2.13;;;8.80;1.00;;;;;;5288217;27;37829;-80
2024/04/10 04:47:28;;;;;;;14.40;1.80;;;8.80;1.00;;;;;;5296258;27;37601;-78
2024/04/10 04:49:54;;;;;;;21.23;2.67;;;8.80;1.00;;;;;;5290385;27;38600;-80
2024/04/10 04:52:22;;;;;;;12.87;2.53;;;8.80;1.00;;;;;;5291928;26;40447;-78
2024/04/10 04:54:50;;;;;;;11.57;2.70;;;8.80;1.00;;;;;;5296256;27;36877;-79
2024/04/10 04:57:17;;;;;;;14.10;2.50;;;8.80;1.00;;;;;;5285903;26;38586;-79
2024/04/10 04:59:44;;;;;;;13.77;3.07;;;8.80;1.00;;;;;;5282696;26;38801;-78
2024/04/10 05:02:10;;;;;;;9.10;2.00;;;8.80;1.00;;;;;;5275986;27;38592;-78
2024/04/10 05:07:21;;;;;;;17.10;2.57;;;8.80;1.00;;;;;;5271489;26;39655;-78
2024/04/10 05:09:49;;;;;;;20.40;2.80;;;8.80;1.00;;;;;;5280647;27;39847;-78
2024/04/10 05:12:15;;;;;;;11.73;2.93;;;8.80;1.00;;;;;;5268488;27;37001;-79
2024/04/10 05:14:46;;;;;;;10.57;2.07;;;8.80;1.00;;;;;;5270849;27;36189;-79
2024/04/10 05:17:14;;;;;;;15.57;2.83;;;8.80;1.00;;;;;;5278090;26;40191;-79
2024/04/10 05:19:40;;;;;;;14.03;2.87;;;8.70;1.00;;;;;;5284514;27;36624;-79
2024/04/10 05:22:06;;;;;;;14.40;2.10;;;8.70;1.00;;;;;;5283143;26;38841;-79
2024/04/10 05:24:33;;;;;;;12.43;2.33;;;8.80;1.00;;;;;;5284126;27;37252;-79
2024/04/10 05:27:04;;;;;;;11.77;3.47;;;8.70;1.00;;;;;;5284440;26;40256;-78
2024/04/10 05:29:32;;;;;;;17.47;2.03;;;8.70;1.00;;;;;;5270857;26;49057;-78
2024/04/10 05:32:00;;;;;;;15.70;2.93;;;8.70;1.00;;;;;;5278908;27;40672;-78
2024/04/10 05:34:27;;;;;;;10.50;2.00;;;8.60;1.00;;;;;;5278893;27;38595;-78
2024/04/10 05:36:53;;;;;;;11.43;2.13;;;8.60;1.00;;;;;;5283188;27;37632;-79
2024/04/10 05:39:28;;;;;;;15.97;3.13;;;8.60;1.00;;;;;;5276221;26;37010;-78
2024/04/10 05:41:58;;;;;;;12.33;2.00;;;8.60;1.00;;;;;;5282985;27;38559;-79
2024/04/10 05:44:25;;;;;;;15.60;2.33;;;8.60;1.00;;;;;;5282660;27;37626;-78
2024/04/10 05:46:51;;;;;;;16.47;3.00;;;8.60;1.00;;;;;;5278081;27;39831;-79
2024/04/10 05:49:17;;;;;;;19.87;2.60;;;8.60;1.00;;;;;;5280780;27;38746;-79
2024/04/10 05:51:43;;;;;;;14.97;2.40;;;8.60;1.00;;;;;;5287314;27;38824;-79
2024/04/10 05:54:09;;;;;;;12.20;2.20;;;8.60;1.00;;;;;;5285270;27;37667;-79
2024/04/10 05:56:36;;;;;;;11.33;2.37;;;8.60;1.00;;;;;;5285898;27;38791;-77
2024/04/10 05:59:02;;;;;;;15.23;2.63;;;8.60;1.00;;;;;;5289188;27;36765;-79
2024/04/10 06:01:29;;;;;;;10.83;2.00;;;8.60;1.00;;;;;;5290773;27;37093;-79
2024/04/10 06:03:56;;;;;;;12.53;2.60;;;8.60;1.00;;;;;;5292040;27;37600;-80
2024/04/10 06:06:23;;;;;;;14.80;3.20;;;8.60;1.00;;;;;;5280391;27;40826;-78
2024/04/10 06:08:51;;;;;;;12.70;2.47;;;8.60;1.00;;;;;;5284890;27;38836;-80
2024/04/10 06:11:18;;;;;;;13.60;1.90;;;8.60;1.00;;;;;;5284936;27;38658;-79
2024/04/10 06:13:47;;;;;;;15.23;1.93;;;8.70;1.00;;;;;;5286742;27;35954;-78
2024/04/10 06:16:13;;;;;;;16.70;2.30;;;8.70;1.00;;;;;;5282069;26;39096;-81
2024/04/10 06:18:39;;;;;;;16.57;2.00;;;8.80;1.00;;;;;;5282094;27;38345;-79
2024/04/10 06:21:07;;;;;;;12.97;2.17;;;8.90;1.00;;;;;;5288773;27;38018;-79
2024/04/10 06:23:33;;;;;;;13.50;2.63;;;9.00;1.00;;;;;;5286648;27;37946;-79
2024/04/10 06:25:59;;;;;;;10.53;1.80;;;9.00;1.00;;;;;;5289044;27;38732;-78
2024/04/10 06:28:26;;;;;;;10.83;2.30;;;9.10;1.00;;;;;;5288153;27;38954;-79
2024/04/10 06:31:04;;;;;;;17.77;2.30;;;9.20;1.00;;;;;;5279130;27;37739;-78
2024/04/10 06:33:33;;;;;;;12.40;1.90;;;9.30;1.00;;;;;;5283003;27;47671;-79
2024/04/10 06:36:04;;;;;;;16.47;2.30;;;9.30;1.00;;;;;;5285207;27;39655;-79
2024/04/10 06:38:32;;;;;;;13.40;1.80;;;9.40;1.00;;;;;;5286354;27;47382;-79
2024/04/10 06:41:01;;;;;;;10.53;2.27;;;9.40;1.00;;;;;;5282432;27;39639;-79
2024/04/10 06:43:27;;;;;;;17.43;3.23;;;9.40;1.00;;;;;;5283625;27;37751;-79
2024/04/10 06:45:58;;;;;;;15.23;2.00;;;9.40;1.00;;;;;;5283812;27;38821;-79
2024/04/10 06:48:27;;;;;;;10.57;1.57;;;9.50;1.00;;;;;;5274945;27;36933;-80
2024/04/10 06:51:05;;;;;;;13.63;2.87;;;9.50;1.00;;;;;;5288323;27;37513;-80
2024/04/10 06:53:32;;;;;;;14.48;2.08;;;9.50;1.00;;;;;;5289356;27;48729;-79
2024/04/10 06:56:03;;;;;;;14.30;1.77;;;9.60;1.00;;;;;;5306804;27;39167;-80
2024/04/10 06:58:30;;;;;;;11.90;2.30;;;9.60;1.00;;;;;;5288151;27;47567;-80
2024/04/10 07:01:02;;;;;;;9.98;2.20;;;9.70;1.00;;;;;;5288405;27;39774;-80
2024/04/10 07:03:31;;;;;;;12.63;2.75;;;9.80;1.00;;;;;;5288756;27;48572;-80
2024/04/10 07:06:14;;;;;;;9.93;2.40;;;9.80;1.00;;;;;;5288026;27;37945;-80
2024/04/10 07:08:46;;;;;;;11.70;1.80;;;9.90;1.00;;;;;;5284520;27;47440;-80
2024/04/10 07:11:16;;;;;;;12.93;1.58;;;10.00;1.00;;;;;;5289536;27;38486;-80
2024/04/10 07:13:45;;;;;;;14.05;1.50;;;10.00;1.00;;;;;;5298753;27;37434;-79
2024/04/10 07:16:12;;;;;;;12.48;1.88;;;10.10;1.00;;;;;;5289758;27;37697;-81
2024/04/10 07:18:38;;;;;;;12.70;1.77;;;10.10;1.00;;;;;;5291106;27;38395;-80
2024/04/10 07:21:09;;;;;;;8.35;1.65;;;10.20;1.00;;;;;;5292747;27;38282;-80
2024/04/10 07:23:37;;;;;;;13.82;1.63;;;10.40;1.00;;;;;;5290330;27;37546;-80
2024/04/10 07:26:19;;;;;;;8.48;2.00;;;10.50;1.00;;;;;;5291320;27;37768;-80
2024/04/10 07:28:48;;;;;;;14.25;1.63;;;10.60;1.00;;;;;;5290426;27;37458;-79
2024/04/10 07:31:28;;;;;;;9.93;1.75;;;10.60;1.00;;;;;;5292421;27;39693;-80
2024/04/10 07:33:57;;;;;;;11.50;2.00;;;10.60;1.00;;;;;;5292832;27;36227;-80
2024/04/10 07:36:24;;;;;;;8.77;1.67;;;10.60;1.00;;;;;;5292623;27;38908;-80
2024/04/10 07:38:58;;;;;;;10.05;1.92;;;10.60;1.00;;;;;;5295712;27;36949;-80
2024/04/10 07:41:24;;;;;;;9.43;1.65;;;10.70;1.00;;;;;;5284452;27;39636;-80
2024/04/10 07:43:51;;;;;;;11.25;1.90;;;10.80;1.00;;;;;;5295703;27;38303;-80
2024/04/10 07:46:19;;;;;;;9.75;1.58;;;10.90;1.00;;;;;;5295605;26;39229;-81
2024/04/10 07:48:57;;;;;;;8.70;1.30;;;11.00;1.00;;;;;;5291881;27;39228;-79
2024/04/10 07:51:27;;;;;;;8.80;2.03;;;11.00;1.00;;;;;;5292204;27;38662;-81
2024/04/10 07:53:54;;;;;;;10.18;1.75;;;10.90;1.00;;;;;;5287271;27;37916;-80
2024/04/10 07:56:22;;;;;;;9.27;1.63;;;10.90;99.90;;;;;;5281304;26;38215;-80
2024/04/10 07:58:51;;;;;;;10.32;1.60;;;11.10;99.90;;;;;;5275158;27;39913;-80
2024/04/10 08:01:23;;;;;;;8.30;1.55;;;11.20;1.00;;;;;;5292464;27;38069;-80
2024/04/10 08:03:54;;;;;;;7.13;1.35;;;11.30;18.60;;;;;;5295569;27;37264;-80
2024/04/10 08:06:23;;;;;;;8.32;1.15;;;11.40;18.30;;;;;;5295348;26;38787;-80
2024/04/10 08:08:52;;;;;;;11.20;1.63;;;11.20;40.10;;;;;;5296309;27;37217;-81
2024/04/10 08:11:21;;;;;;;18.85;2.08;;;11.00;99.90;;;;;;5285409;26;38252;-80
2024/04/10 08:13:51;;;;;;;6.03;1.48;;;11.00;1.00;;;;;;5288414;27;38687;-80
2024/04/10 08:16:29;;;;;;;9.10;2.00;;;11.10;1.00;;;;;;5296893;26;38877;-81
2024/04/10 08:19:07;;;;;;;10.23;1.65;;;11.40;1.00;;;;;;5295514;27;37635;-81
2024/04/10 08:21:38;;;;;;;7.15;1.50;;;11.80;1.00;;;;;;5283775;27;47791;-80
2024/04/10 08:24:04;;;;;;;10.23;1.52;;;12.10;1.00;;;;;;5285445;27;36084;-80
2024/04/10 08:26:33;;;;;;;6.95;1.60;;;12.30;54.50;;;;;;5277622;27;38199;-82
2024/04/10 08:29:08;;;;;;;11.95;2.13;;;12.70;1.00;;;;;;5270909;27;36305;-83
2024/04/10 08:31:38;;;;;;;13.80;2.25;;;12.90;99.90;;;;;;5271224;27;47694;-84
2024/04/10 08:34:10;;;;;;;10.93;1.98;;;12.90;1.00;;;;;;5230509;27;37846;-84
2024/04/10 08:36:37;;;;;;;7.05;1.23;;;12.90;99.90;;;;;;5271388;27;37921;-83
2024/04/10 08:39:04;;;;;;;10.20;1.77;;;13.10;99.90;;;;;;5241416;27;37065;-82
2024/04/10 08:41:34;;;;;;;9.27;1.83;;;13.10;1.00;;;;;;5249808;27;38826;-82
2024/04/10 08:44:06;;;;;;;9.50;1.58;;;12.90;1.00;;;;;;5260998;27;38151;-84
2024/04/10 08:46:42;;;;;;;10.50;1.40;;;12.90;1.00;;;;;;5263763;27;49164;-82
2024/04/10 08:49:09;;;;;;;10.20;1.33;;;13.10;1.00;;;;;;5271516;26;39882;-85
2024/04/10 08:51:39;;;;;;;10.75;1.48;;;13.30;99.90;;;;;;5266870;27;38245;-87
2024/04/10 08:54:11;;;;;;;7.35;1.33;;;13.30;1.00;;;;;;5261499;26;36491;-85
2024/04/10 08:56:46;;;;;;;8.45;1.35;;;13.30;99.90;;;;;;5260680;27;39265;-83
2024/04/10 08:59:13;;;;;;;8.15;1.20;;;13.60;1.00;;;;;;5242729;27;38130;-85
2024/04/10 09:01:43;;;;;;;7.55;1.65;;;13.80;1.00;;;;;;5262887;27;36810;-85
2024/04/10 09:04:14;;;;;;;6.65;1.40;;;14.10;1.00;;;;;;5294352;26;38828;-86
2024/04/10 09:06:50;;;;;;;6.63;1.63;;;14.40;1.00;;;;;;5237072;26;39426;-85
2024/04/10 09:09:23;;;;;;;10.10;1.67;;;14.30;99.90;;;;;;5257985;26;38183;-85
2024/04/10 09:11:52;;;;;;;6.65;1.20;;;14.00;1.00;;;;;;5247952;27;38226;-83
2024/04/10 09:14:18;;;;;;;7.93;1.40;;;13.90;1.00;;;;;;5277080;26;36381;-85
2024/04/10 09:16:45;;;;;;;7.22;1.30;;;13.70;1.00;;;;;;5268347;27;37885;-83
2024/04/10 09:19:15;;;;;;;13.00;1.55;;;13.60;1.00;;;;;;5271476;26;37429;-83
2024/04/10 09:21:43;;;;;;;9.82;1.58;;;13.20;1.00;;;;;;5270943;27;38015;-82
2024/04/10 09:24:09;;;;;;;9.05;1.40;;;13.10;99.90;;;;;;5269316;27;37389;-82
2024/04/10 09:26:37;;;;;;;4.20;0.90;;;13.40;99.90;;;;;;5267146;26;38646;-84
2024/04/10 09:29:12;;;;;;;4.18;0.90;;;13.40;99.90;;;;;;5256875;27;39735;-82
2024/04/10 09:31:39;;;;;;;5.45;1.30;;;13.20;99.90;;;;;;5261329;27;38337;-83
2024/04/10 09:34:10;;;;;;;10.32;1.23;;;13.30;99.90;;;;;;5265237;27;37554;-85
2024/04/10 09:36:37;;;;;;;6.57;1.08;;;13.80;99.90;;;;;;5268168;27;38816;-83
2024/04/10 09:39:06;;;;;;;5.07;1.70;;;14.10;1.00;;;;;;5263192;27;41377;-83
2024/04/10 09:41:35;;;;;;;7.88;1.17;;;14.20;99.90;;;;;;5261365;27;37189;-84
2024/04/10 09:44:04;;;;;;;5.35;1.13;;;14.30;1.00;;;;;;5268981;26;37584;-86
2024/04/10 09:46:38;;;;;;;7.70;1.58;;;14.40;1.00;;;;;;5269418;27;47645;-86
2024/04/10 09:49:12;;;;;;;4.18;0.90;;;14.30;1.00;;;;;;5268137;27;38136;-86
2024/04/10 09:51:45;;;;;;;10.43;1.10;;;14.40;99.90;;;;;;5257079;27;37869;-86
2024/04/10 09:54:12;;;;;;;8.40;1.00;;;14.30;99.90;;;;;;5264012;27;38509;-84
2024/04/10 09:56:44;;;;;;;3.03;0.82;;;14.00;1.00;;;;;;5267742;27;39587;-87
2024/04/10 09:59:13;;;;;;;7.15;1.52;;;14.20;1.00;;;;;;5268075;26;37923;-87
2024/04/10 10:01:41;;;;;;;10.48;1.88;;;14.60;1.00;;;;;;5268435;27;37196;-85
2024/04/10 10:04:09;;;;;;;4.00;1.08;;;14.20;1.00;;;;;;5267607;26;37416;-86
2024/04/10 10:06:35;;;;;;;5.13;1.20;;;14.10;99.90;;;;;;5267160;27;40934;-86
2024/04/10 10:09:01;;;;;;;8.73;1.75;;;14.20;1.00;;;;;;5269053;27;37273;-85
2024/04/10 10:11:28;;;;;;;4.30;0.98;;;14.60;99.90;;;;;;5261030;27;38973;-85
2024/04/10 10:13:58;;;;;;;9.02;2.05;;;15.00;99.90;;;;;;5270371;27;36400;-86
2024/04/10 10:16:26;;;;;;;3.80;0.70;;;15.20;55.20;;;;;;5265140;27;39537;-84
2024/04/10 10:18:56;;;;;;;5.60;1.20;;;15.60;99.90;;;;;;5266299;27;40257;-84
2024/04/10 10:21:23;;;;;;;6.25;1.17;;;16.00;1.00;;;;;;5259421;26;38822;-84
2024/04/10 10:24:04;;;;;;;4.57;1.25;;;16.00;1.00;;;;;;5282763;26;39799;-84
2024/04/10 10:26:30;;;;;;;4.25;1.50;;;16.00;1.00;;;;;;5268140;27;49263;-86
2024/04/10 10:29:07;;;;;;;5.22;0.70;;;15.80;1.00;;;;;;5265444;26;40443;-86
2024/04/10 10:31:36;;;;;;;2.45;0.73;;;16.00;1.00;;;;;;5266600;27;48031;-87
2024/04/10 10:34:14;;;;;;;3.40;0.80;;;15.80;99.90;;;;;;5267834;27;38750;-84
2024/04/10 10:36:40;;;;;;;4.95;0.77;;;16.00;99.90;;;;;;5257682;27;38372;-86
2024/04/10 10:39:16;;;;;;;4.60;0.88;;;15.90;99.90;;;;;;5258716;26;37887;-86
2024/04/10 10:41:42;;;;;;;5.50;0.75;;;15.70;99.90;;;;;;5261818;26;38615;-87
2024/04/10 10:44:08;;;;;;;3.58;0.80;;;15.60;99.90;;;;;;5261992;27;37760;-86
2024/04/10 10:46:35;;;;;;;3.72;0.70;;;15.50;99.90;;;;;;5260871;26;39482;-88
2024/04/10 10:49:07;;;;;;;4.65;0.70;;;15.60;99.90;;;;;;5266216;27;39557;-86
2024/04/10 10:51:34;;;;;;;4.18;1.17;;;15.70;99.90;;;;;;5261440;27;48958;-88
2024/04/10 10:54:00;;;;;;;6.68;1.00;;;15.80;99.90;;;;;;5265042;27;37837;-87
2024/04/10 10:56:27;;;;;;;4.20;1.17;;;16.00;99.90;;;;;;5266645;27;38231;-86
2024/04/10 10:58:54;;;;;;;4.65;2.05;;;16.20;99.90;;;;;;5269904;26;39583;-87
2024/04/10 11:01:24;;;;;;;3.03;0.77;;;16.20;99.90;;;;;;5264179;26;38725;-86
2024/04/10 11:03:50;;;;;;;2.13;0.70;;;16.20;99.90;;;;;;5265429;27;38243;-88
2024/04/10 11:06:24;;;;;;;6.13;1.17;;;16.10;99.90;;;;;;5265530;27;39376;-87
2024/04/10 11:08:50;;;;;;;1.75;0.55;;;16.00;99.90;;;;;;5266007;27;38847;-86
2024/04/10 11:11:16;;;;;;;4.18;0.77;;;16.00;99.90;;;;;;5268128;27;39043;-86
2024/04/10 11:13:55;;;;;;;4.45;0.80;;;16.20;99.90;;;;;;5267519;27;38600;-86
2024/04/10 11:16:31;;;;;;;3.75;0.85;;;16.10;99.90;;;;;;5259963;27;38850;-86
2024/04/10 11:19:01;;;;;;;3.38;0.80;;;16.20;99.90;;;;;;5264538;26;39278;-88
2024/04/10 11:21:30;;;;;;;5.40;1.60;;;16.00;99.90;;;;;;5272481;27;49529;-86
2024/04/10 11:23:59;;;;;;;3.83;1.00;;;16.40;99.90;;;;;;5268111;27;37734;-88
2024/04/10 11:26:26;;;;;;;3.90;0.90;;;16.90;99.90;;;;;;5270459;27;38186;-85
2024/04/10 11:28:53;;;;;;;4.80;0.95;;;17.10;99.90;;;;;;5272311;27;39113;-87
2024/04/10 11:31:21;;;;;;;5.65;0.90;;;16.70;99.90;;;;;;5257721;26;38431;-84
2024/04/10 11:33:47;;;;;;;5.00;0.70;;;17.00;99.90;;;;;;5257818;27;35797;-87
2024/04/10 11:36:16;;;;;;;5.38;1.10;;;17.00;99.90;;;;;;5254233;27;38236;-84
2024/04/10 11:38:43;;;;;;;3.42;1.02;;;17.00;99.90;;;;;;5268455;27;37517;-87
2024/04/10 11:41:10;;;;;;;2.97;0.60;;;16.70;99.90;;;;;;5265410;27;39174;-87
2024/04/10 11:43:36;;;;;;;5.53;0.80;;;16.60;99.90;;;;;;5263599;27;38231;-86
2024/04/10 11:46:02;;;;;;;3.22;0.70;;;16.40;99.90;;;;;;5243155;26;39599;-86
2024/04/10 11:48:29;;;;;;;3.92;1.00;;;16.40;99.90;;;;;;5249278;27;37066;-85
2024/04/10 11:50:58;;;;;;;3.35;0.68;;;16.70;99.90;;;;;;5263325;27;38901;-87
2024/04/10 11:53:24;;;;;;;3.55;1.05;;;16.80;99.90;;;;;;5262096;26;37247;-86
2024/04/10 11:55:50;;;;;;;3.70;0.70;;;16.70;99.90;;;;;;5267888;27;39958;-86
2024/04/10 11:58:17;;;;;;;4.45;0.70;;;16.50;99.90;;;;;;5259290;26;37497;-87
2024/04/10 12:00:43;;;;;;;3.05;0.82;;;16.40;99.90;;;;;;5281075;26;40641;-86
2024/04/10 12:03:09;;;;;;;5.65;1.23;;;16.40;99.90;;;;;;5279469;27;37561;-86
2024/04/10 12:05:36;;;;;;;3.00;0.73;;;16.50;99.90;;;;;;5261357;27;39083;-86
2024/04/10 12:08:04;;;;;;;4.35;0.70;;;16.10;99.90;;;;;;5292370;26;38534;-88
2024/04/10 12:10:31;;;;;;;24.77;4.00;;;15.90;99.90;;;;;;5270956;27;39553;-87
2024/04/10 12:13:03;;;;;;;6.78;1.00;;;16.00;99.90;;;;;;5275692;27;38260;-86
2024/04/10 12:15:30;;;;;;;9.13;1.03;;;16.20;99.90;;;;;;5263005;27;47700;-88
2024/04/10 12:17:56;;;;;;;4.95;0.90;;;16.20;99.90;;;;;;5276270;27;38827;-89
2024/04/10 12:20:23;;;;;;;9.32;1.00;;;16.50;99.90;;;;;;5272211;27;38460;-91
2024/04/10 12:27:13;;;;;;;5.15;1.25;;;16.40;99.90;;;;;;5489415;25;20345;-81
2024/04/10 12:29:44;;;;;;;5.93;0.95;;;16.50;99.90;;;;;;5494055;26;37520;-83
2024/04/10 12:32:12;;;;;;;5.45;0.90;;;16.60;99.90;;;;;;5489686;25;37502;-85
2024/04/10 12:34:39;;;;;;;7.70;1.55;;;16.50;99.90;;;;;;5487159;26;38197;-84
2024/04/10 12:39:50;;;;;;;7.55;1.02;;;16.40;99.90;;;;;;5464457;26;38496;-83
2024/04/10 12:42:16;;;;;;;9.88;1.20;;;16.60;99.90;;;;;;5501484;25;39260;-84
2024/04/10 12:44:42;;;;;;;4.97;1.23;;;16.70;99.90;;;;;;5493511;25;39584;-78
2024/04/10 12:47:09;;;;;;;8.05;1.63;;;16.70;99.90;;;;;;5499535;25;38177;-78
2024/04/10 12:49:36;;;;;;;3.65;0.70;;;16.80;99.90;;;;;;5502808;25;38788;-79
2024/04/10 12:52:03;;;;;;;3.00;0.90;;;16.80;99.90;;;;;;5486921;25;36065;-78
2024/04/10 12:54:29;;;;;;;4.97;0.90;;;16.70;99.90;;;;;;5511477;25;40349;-78
2024/04/10 12:56:55;;;;;;;3.63;0.80;;;16.70;99.90;;;;;;5487607;26;38220;-78
2024/04/10 12:59:21;;;;;;;5.75;1.02;;;16.80;99.90;;;;;;5493381;25;37987;-81
2024/04/10 13:01:47;;;;;;;7.03;1.23;;;17.00;99.90;;;;;;5498033;25;36234;-82
2024/04/10 13:04:13;;;;;;;2.95;0.60;;;16.90;99.90;;;;;;5491180;25;39070;-83
2024/04/10 13:06:41;;;;;;;4.38;1.10;;;17.00;99.90;;;;;;5498485;26;42655;-82
2024/04/10 13:09:10;;;;;;;10.27;1.40;;;16.90;99.90;;;;;;5483995;25;38922;-81
2024/04/10 13:11:36;;;;;;;4.85;0.90;;;17.10;99.90;;;;;;5494455;26;37056;-82